METAR πλησιέστερων αεροδρομίων

 

LGIR - Iraklion Airport
Απόσταση από το σταθμό: ΒΔ 62km
Ενημερώθηκε: 26/06/2019 07:20
Αίθριος
Αίθριος
 Ανεμος από ΔΒΔ
Ανεμος: ΔΒΔ 28 km/h
Θερμοκρασία: 25°C
Σημείο Δρόσου: 19°C
Υγρασία: 69%
Βαρόμετρο: 1011 hPa
Περίληψη: Αίθριος
Ορατότητα: μεγαλύτερη από 10 km
2019/06/26 04:20 LGIR 260420Z 29015KT CAVOK 25/19 Q1011 NOSIG
LGSA - Souda/Chania Airport
Απόσταση από το σταθμό: ΔΒΔ 154km
Ενημερώθηκε: 26/06/2019 07:20
Λίγα σύννεφα
Λίγα σύννεφα
 Ανεμος από ΒΔ
Ανεμος: ΒΔ 7 km/h
Θερμοκρασία: 24°C
Σημείο Δρόσου: 21°C
Υγρασία: 83%
Βαρόμετρο: 1012 hPa
Νέφη: Λίγα σύννεφα
Ορατότητα: 10 km
Λεπτομέρειες νεφών: Λίγα σύννεφα 610 m
2019/06/26 04:20 LGSA 260420Z 31004KT 9999 FEW020 24/21 Q1012